sensor_id;sensor_type;location;lat;lon;timestamp;pressure;altitude;pressure_sealevel;temperature;humidity
53270;BME280;39159;45.634;9.420;2023-02-28T00:01:16;99396.44;;;3.17;100.00
53270;BME280;39159;45.634;9.420;2023-02-28T00:03:42;99398.50;;;3.10;100.00
53270;BME280;39159;45.634;9.420;2023-02-28T00:06:08;99395.56;;;3.11;100.00
53270;BME280;39159;45.634;9.420;2023-02-28T00:08:35;99403.38;;;3.13;100.00
53270;BME280;39159;45.634;9.420;2023-02-28T00:11:02;99400.97;;;3.11;100.00
53270;BME280;39159;45.634;9.420;2023-02-28T00:13:28;99401.44;;;3.08;100.00
53270;BME280;39159;45.634;9.420;2023-02-28T00:16:05;99410.25;;;3.04;100.00
53270;BME280;39159;45.634;9.420;2023-02-28T00:18:31;99412.97;;;3.04;100.00
53270;BME280;39159;45.634;9.420;2023-02-28T00:20:57;99411.06;;;3.04;100.00
53270;BME280;39159;45.634;9.420;2023-02-28T00:23:22;99405.09;;;3.02;100.00
53270;BME280;39159;45.634;9.420;2023-02-28T00:25:48;99411.59;;;3.01;100.00
53270;BME280;39159;45.634;9.420;2023-02-28T00:28:14;99410.25;;;3.04;100.00
53270;BME280;39159;45.634;9.420;2023-02-28T00:30:39;99404.63;;;3.05;100.00
53270;BME280;39159;45.634;9.420;2023-02-28T00:33:05;99411.91;;;3.05;100.00
53270;BME280;39159;45.634;9.420;2023-02-28T00:35:30;99404.56;;;3.00;100.00
53270;BME280;39159;45.634;9.420;2023-02-28T00:37:56;99414.28;;;3.01;100.00
53270;BME280;39159;45.634;9.420;2023-02-28T00:40:21;99411.41;;;3.08;100.00
53270;BME280;39159;45.634;9.420;2023-02-28T00:42:46;99414.34;;;3.06;100.00
53270;BME280;39159;45.634;9.420;2023-02-28T00:45:12;99414.34;;;3.06;100.00
53270;BME280;39159;45.634;9.420;2023-02-28T00:47:37;99416.81;;;3.08;100.00
53270;BME280;39159;45.634;9.420;2023-02-28T00:50:03;99416.81;;;3.08;99.48
53270;BME280;39159;45.634;9.420;2023-02-28T00:52:29;99420.56;;;3.07;98.49
53270;BME280;39159;45.634;9.420;2023-02-28T00:54:55;99428.56;;;3.02;100.00
53270;BME280;39159;45.634;9.420;2023-02-28T00:57:20;99425.72;;;2.92;100.00
53270;BME280;39159;45.634;9.420;2023-02-28T00:59:46;99424.59;;;2.87;99.26
53270;BME280;39159;45.634;9.420;2023-02-28T01:02:11;99429.72;;;2.89;100.00
53270;BME280;39159;45.634;9.420;2023-02-28T01:04:36;99436.41;;;2.86;96.62
53270;BME280;39159;45.634;9.420;2023-02-28T01:07:02;99438.31;;;2.86;97.63
53270;BME280;39159;45.634;9.420;2023-02-28T01:09:27;99437.16;;;2.82;98.80
53270;BME280;39159;45.634;9.420;2023-02-28T01:11:53;99434.22;;;2.83;100.00
53270;BME280;39159;45.634;9.420;2023-02-28T01:14:18;99442.88;;;2.85;100.00
53270;BME280;39159;45.634;9.420;2023-02-28T01:16:43;99442.06;;;2.85;98.50
53270;BME280;39159;45.634;9.420;2023-02-28T01:19:09;99435.59;;;2.86;100.00
53270;BME280;39159;45.634;9.420;2023-02-28T01:21:35;99437.81;;;2.89;100.00
53270;BME280;39159;45.634;9.420;2023-02-28T01:24:01;99444.03;;;2.89;100.00
53270;BME280;39159;45.634;9.420;2023-02-28T01:26:27;99443.47;;;2.87;100.00
53270;BME280;39159;45.634;9.420;2023-02-28T01:28:52;99445.25;;;2.82;100.00
53270;BME280;39159;45.634;9.420;2023-02-28T01:31:18;99441.41;;;2.78;100.00
53270;BME280;39159;45.634;9.420;2023-02-28T01:33:44;99436.59;;;2.80;100.00
53270;BME280;39159;45.634;9.420;2023-02-28T01:36:13;99441.56;;;2.71;100.00
53270;BME280;39159;45.634;9.420;2023-02-28T01:38:39;99436.59;;;2.63;100.00
53270;BME280;39159;45.634;9.420;2023-02-28T01:41:06;99442.28;;;2.66;100.00
53270;BME280;39159;45.634;9.420;2023-02-28T01:43:53;99437.91;;;2.60;100.00
53270;BME280;39159;45.634;9.420;2023-02-28T01:46:18;99446.03;;;2.48;100.00
53270;BME280;39159;45.634;9.420;2023-02-28T01:49:09;99451.53;;;2.54;100.00
53270;BME280;39159;45.634;9.420;2023-02-28T01:51:46;99440.47;;;2.55;100.00
53270;BME280;39159;45.634;9.420;2023-02-28T01:54:23;99438.28;;;2.52;100.00
53270;BME280;39159;45.634;9.420;2023-02-28T01:56:54;99440.41;;;2.50;100.00
53270;BME280;39159;45.634;9.420;2023-02-28T01:59:31;99433.78;;;2.41;100.00
53270;BME280;39159;45.634;9.420;2023-02-28T02:01:58;99441.78;;;2.36;100.00
53270;BME280;39159;45.634;9.420;2023-02-28T02:04:27;99433.75;;;2.24;100.00
53270;BME280;39159;45.634;9.420;2023-02-28T02:06:58;99440.28;;;2.28;100.00
53270;BME280;39159;45.634;9.420;2023-02-28T02:09:24;99436.28;;;2.31;100.00
53270;BME280;39159;45.634;9.420;2023-02-28T02:11:49;99438.25;;;2.35;100.00
53270;BME280;39159;45.634;9.420;2023-02-28T02:17:28;99435.09;;;2.38;100.00
53270;BME280;39159;45.634;9.420;2023-02-28T02:25:38;99430.63;;;2.15;100.00
53270;BME280;39159;45.634;9.420;2023-02-28T02:36:52;99423.50;;;1.80;100.00
53270;BME280;39159;45.634;9.420;2023-02-28T02:39:45;99442.81;;;1.77;100.00
53270;BME280;39159;45.634;9.420;2023-02-28T02:42:23;99440.25;;;1.71;100.00
53270;BME280;39159;45.634;9.420;2023-02-28T02:45:01;99435.00;;;1.64;100.00
53270;BME280;39159;45.634;9.420;2023-02-28T02:47:30;99427.63;;;1.59;100.00
53270;BME280;39159;45.634;9.420;2023-02-28T02:49:59;99431.84;;;1.55;100.00
53270;BME280;39159;45.634;9.420;2023-02-28T02:52:34;99430.13;;;1.49;100.00
53270;BME280;39159;45.634;9.420;2023-02-28T02:55:03;99429.88;;;1.51;100.00
53270;BME280;39159;45.634;9.420;2023-02-28T02:57:33;99427.09;;;1.45;100.00
53270;BME280;39159;45.634;9.420;2023-02-28T03:00:03;99430.34;;;1.48;100.00
53270;BME280;39159;45.634;9.420;2023-02-28T03:02:31;99433.75;;;1.43;100.00
53270;BME280;39159;45.634;9.420;2023-02-28T03:05:03;99433.63;;;1.50;100.00
53270;BME280;39159;45.634;9.420;2023-02-28T03:07:29;99433.38;;;1.51;100.00
53270;BME280;39159;45.634;9.420;2023-02-28T03:09:56;99431.25;;;1.53;100.00
53270;BME280;39159;45.634;9.420;2023-02-28T03:12:28;99439.22;;;1.60;100.00
53270;BME280;39159;45.634;9.420;2023-02-28T03:18:11;99448.66;;;1.74;100.00
53270;BME280;39159;45.634;9.420;2023-02-28T03:23:23;99439.06;;;1.66;100.00
53270;BME280;39159;45.634;9.420;2023-02-28T03:26:00;99436.97;;;1.69;100.00
53270;BME280;39159;45.634;9.420;2023-02-28T03:33:31;99437.41;;;1.89;100.00
53270;BME280;39159;45.634;9.420;2023-02-28T03:36:04;99435.25;;;1.91;100.00
53270;BME280;39159;45.634;9.420;2023-02-28T03:38:45;99442.78;;;1.89;100.00
53270;BME280;39159;45.634;9.420;2023-02-28T03:41:17;99440.09;;;1.89;100.00
53270;BME280;39159;45.634;9.420;2023-02-28T03:43:58;99442.53;;;1.91;100.00
53270;BME280;39159;45.634;9.420;2023-02-28T03:46:27;99435.97;;;1.86;100.00
53270;BME280;39159;45.634;9.420;2023-02-28T03:49:07;99436.97;;;1.80;100.00
53270;BME280;39159;45.634;9.420;2023-02-28T03:51:38;99434.72;;;1.77;100.00
53270;BME280;39159;45.634;9.420;2023-02-28T03:54:30;99442.22;;;1.75;100.00
53270;BME280;39159;45.634;9.420;2023-02-28T03:57:04;99436.59;;;1.77;100.00
53270;BME280;39159;45.634;9.420;2023-02-28T03:59:39;99451.13;;;1.76;100.00
53270;BME280;39159;45.634;9.420;2023-02-28T04:02:07;99441.19;;;1.76;100.00
53270;BME280;39159;45.634;9.420;2023-02-28T04:04:33;99442.47;;;1.74;100.00
53270;BME280;39159;45.634;9.420;2023-02-28T04:07:08;99444.59;;;1.72;100.00
53270;BME280;39159;45.634;9.420;2023-02-28T04:09:34;99449.72;;;1.73;100.00
53270;BME280;39159;45.634;9.420;2023-02-28T04:11:59;99451.94;;;1.76;100.00
53270;BME280;39159;45.634;9.420;2023-02-28T04:14:25;99450.88;;;1.77;100.00
53270;BME280;39159;45.634;9.420;2023-02-28T04:16:50;99453.91;;;1.81;100.00
53270;BME280;39159;45.634;9.420;2023-02-28T04:19:16;99463.50;;;1.77;100.00
53270;BME280;39159;45.634;9.420;2023-02-28T04:21:47;99463.56;;;1.65;100.00
53270;BME280;39159;45.634;9.420;2023-02-28T04:24:15;99456.06;;;1.55;100.00
53270;BME280;39159;45.634;9.420;2023-02-28T04:26:46;99459.94;;;1.48;100.00
53270;BME280;39159;45.634;9.420;2023-02-28T04:29:14;99461.47;;;1.43;100.00
53270;BME280;39159;45.634;9.420;2023-02-28T04:31:43;99457.16;;;1.42;100.00
53270;BME280;39159;45.634;9.420;2023-02-28T04:34:08;99448.50;;;1.40;100.00
53270;BME280;39159;45.634;9.420;2023-02-28T04:36:34;99449.53;;;1.39;100.00
53270;BME280;39159;45.634;9.420;2023-02-28T04:38:59;99462.41;;;1.37;100.00
53270;BME280;39159;45.634;9.420;2023-02-28T04:41:25;99459.47;;;1.39;100.00
53270;BME280;39159;45.634;9.420;2023-02-28T04:43:51;99464.63;;;1.40;100.00
53270;BME280;39159;45.634;9.420;2023-02-28T04:46:17;99460.78;;;1.36;100.00
53270;BME280;39159;45.634;9.420;2023-02-28T04:48:43;99461.22;;;1.33;100.00
53270;BME280;39159;45.634;9.420;2023-02-28T04:51:12;99463.59;;;1.30;100.00
53270;BME280;39159;45.634;9.420;2023-02-28T04:53:39;99459.72;;;1.26;100.00
53270;BME280;39159;45.634;9.420;2023-02-28T04:56:06;99456.69;;;1.22;100.00
53270;BME280;39159;45.634;9.420;2023-02-28T04:58:32;99461.00;;;1.23;100.00
53270;BME280;39159;45.634;9.420;2023-02-28T05:01:03;99461.69;;;1.42;100.00
53270;BME280;39159;45.634;9.420;2023-02-28T05:03:29;99463.66;;;1.47;100.00
53270;BME280;39159;45.634;9.420;2023-02-28T05:05:54;99458.19;;;1.41;100.00
53270;BME280;39159;45.634;9.420;2023-02-28T05:08:20;99460.97;;;1.47;100.00
53270;BME280;39159;45.634;9.420;2023-02-28T05:10:45;99460.63;;;1.55;100.00
53270;BME280;39159;45.634;9.420;2023-02-28T05:13:12;99466.94;;;1.60;100.00
53270;BME280;39159;45.634;9.420;2023-02-28T05:15:38;99469.50;;;1.67;100.00
53270;BME280;39159;45.634;9.420;2023-02-28T05:18:03;99475.22;;;1.71;100.00
53270;BME280;39159;45.634;9.420;2023-02-28T05:20:28;99473.81;;;1.68;100.00
53270;BME280;39159;45.634;9.420;2023-02-28T05:22:54;99477.00;;;1.65;100.00
53270;BME280;39159;45.634;9.420;2023-02-28T05:25:21;99480.16;;;1.62;100.00
53270;BME280;39159;45.634;9.420;2023-02-28T05:27:49;99479.91;;;1.63;100.00
53270;BME280;39159;45.634;9.420;2023-02-28T05:30:15;99476.75;;;1.66;100.00
53270;BME280;39159;45.634;9.420;2023-02-28T05:32:41;99468.09;;;1.64;100.00
53270;BME280;39159;45.634;9.420;2023-02-28T05:35:12;99471.63;;;1.65;100.00
53270;BME280;39159;45.634;9.420;2023-02-28T05:37:38;99481.78;;;1.63;100.00
53270;BME280;39159;45.634;9.420;2023-02-28T05:40:05;99478.41;;;1.68;100.00
53270;BME280;39159;45.634;9.420;2023-02-28T05:42:32;99484.94;;;1.72;100.00
53270;BME280;39159;45.634;9.420;2023-02-28T05:44:57;99486.94;;;1.76;100.00
53270;BME280;39159;45.634;9.420;2023-02-28T05:47:23;99478.41;;;1.68;100.00
53270;BME280;39159;45.634;9.420;2023-02-28T05:49:48;99473.47;;;1.64;100.00
53270;BME280;39159;45.634;9.420;2023-02-28T05:52:14;99480.50;;;1.65;100.00
53270;BME280;39159;45.634;9.420;2023-02-28T05:54:39;99474.75;;;1.62;100.00
53270;BME280;39159;45.634;9.420;2023-02-28T05:57:05;99482.03;;;1.61;100.00
53270;BME280;39159;45.634;9.420;2023-02-28T05:59:31;99473.69;;;1.75;100.00
53270;BME280;39159;45.634;9.420;2023-02-28T06:01:56;99466.44;;;1.75;100.00
53270;BME280;39159;45.634;9.420;2023-02-28T06:04:21;99468.81;;;1.72;100.00
53270;BME280;39159;45.634;9.420;2023-02-28T06:06:48;99460.28;;;1.63;100.00
53270;BME280;39159;45.634;9.420;2023-02-28T06:09:14;99465.06;;;1.61;100.00
53270;BME280;39159;45.634;9.420;2023-02-28T06:11:40;99467.28;;;1.64;100.00
53270;BME280;39159;45.634;9.420;2023-02-28T06:14:06;99471.97;;;1.57;100.00
53270;BME280;39159;45.634;9.420;2023-02-28T06:16:33;99470.91;;;1.58;100.00
53270;BME280;39159;45.634;9.420;2023-02-28T06:19:02;99479.56;;;1.72;100.00
53270;BME280;39159;45.634;9.420;2023-02-28T06:21:28;99478.50;;;1.73;100.00
53270;BME280;39159;45.634;9.420;2023-02-28T06:23:55;99486.78;;;1.83;100.00
53270;BME280;39159;45.634;9.420;2023-02-28T06:26:21;99479.53;;;1.83;100.00
53270;BME280;39159;45.634;9.420;2023-02-28T06:28:47;99482.84;;;1.74;100.00
53270;BME280;39159;45.634;9.420;2023-02-28T06:31:15;99482.25;;;1.72;100.00
53270;BME280;39159;45.634;9.420;2023-02-28T06:33:42;99479.31;;;1.73;100.00
53270;BME280;39159;45.634;9.420;2023-02-28T06:36:09;99486.94;;;1.76;100.00
53270;BME280;39159;45.634;9.420;2023-02-28T06:38:35;99482.34;;;1.77;100.00
53270;BME280;39159;45.634;9.420;2023-02-28T06:41:01;99486.94;;;1.76;100.00
53270;BME280;39159;45.634;9.420;2023-02-28T06:43:37;99487.00;;;1.93;100.00
53270;BME280;39159;45.634;9.420;2023-02-28T06:46:05;99494.06;;;2.11;100.00
53270;BME280;39159;45.634;9.420;2023-02-28T06:48:31;99489.84;;;2.15;100.00
53270;BME280;39159;45.634;9.420;2023-02-28T06:53:28;99496.09;;;2.04;100.00
53270;BME280;39159;45.634;9.420;2023-02-28T06:55:54;99505.69;;;2.00;100.00
53270;BME280;39159;45.634;9.420;2023-02-28T06:58:19;99507.72;;;1.93;100.00
53270;BME280;39159;45.634;9.420;2023-02-28T07:00:45;99506.75;;;1.99;100.00
53270;BME280;39159;45.634;9.420;2023-02-28T07:03:12;99505.59;;;1.95;100.00
53270;BME280;39159;45.634;9.420;2023-02-28T07:05:38;99506.75;;;1.99;100.00
53270;BME280;39159;45.634;9.420;2023-02-28T07:08:05;99512.16;;;1.99;100.00
53270;BME280;39159;45.634;9.420;2023-02-28T07:10:32;99521.84;;;2.00;100.00
53270;BME280;39159;45.634;9.420;2023-02-28T07:12:58;99517.25;;;2.12;100.00
53270;BME280;39159;45.634;9.420;2023-02-28T07:15:23;99513.84;;;2.17;100.00
53270;BME280;39159;45.634;9.420;2023-02-28T07:17:48;99510.94;;;2.18;100.00
53270;BME280;39159;45.634;9.420;2023-02-28T07:20:14;99519.00;;;2.18;100.00
53270;BME280;39159;45.634;9.420;2023-02-28T07:22:39;99520.06;;;2.17;100.00
53270;BME280;39159;45.634;9.420;2023-02-28T07:25:05;99524.75;;;2.10;100.00
53270;BME280;39159;45.634;9.420;2023-02-28T07:27:31;99522.28;;;2.08;100.00
53270;BME280;39159;45.634;9.420;2023-02-28T07:29:56;99519.41;;;1.98;100.00
53270;BME280;39159;45.634;9.420;2023-02-28T07:32:22;99517.75;;;1.97;100.00
53270;BME280;39159;45.634;9.420;2023-02-28T07:34:47;99515.88;;;1.98;100.00
53270;BME280;39159;45.634;9.420;2023-02-28T07:37:13;99514.25;;;1.97;100.00
53270;BME280;39159;45.634;9.420;2023-02-28T07:39:39;99523.13;;;2.09;100.00
53270;BME280;39159;45.634;9.420;2023-02-28T07:42:07;99520.53;;;2.14;100.00
53270;BME280;39159;45.634;9.420;2023-02-28T07:44:35;99518.75;;;2.20;100.00
53270;BME280;39159;45.634;9.420;2023-02-28T07:47:06;99518.47;;;2.33;100.00
53270;BME280;39159;45.634;9.420;2023-02-28T07:49:32;99511.91;;;2.41;100.00
53270;BME280;39159;45.634;9.420;2023-02-28T07:51:57;99527.13;;;2.35;100.00
53270;BME280;39159;45.634;9.420;2023-02-28T07:54:22;99533.09;;;2.49;100.00
53270;BME280;39159;45.634;9.420;2023-02-28T07:56:48;99525.25;;;2.64;100.00
53270;BME280;39159;45.634;9.420;2023-02-28T07:59:13;99529.53;;;2.77;100.00
53270;BME280;39159;45.634;9.420;2023-02-28T08:01:39;99526.69;;;2.84;100.00
53270;BME280;39159;45.634;9.420;2023-02-28T08:04:04;99537.69;;;2.82;100.00
53270;BME280;39159;45.634;9.420;2023-02-28T08:06:29;99538.53;;;2.83;100.00
53270;BME280;39159;45.634;9.420;2023-02-28T08:08:55;99546.78;;;2.93;100.00
53270;BME280;39159;45.634;9.420;2023-02-28T08:11:21;99540.59;;;2.93;100.00
53270;BME280;39159;45.634;9.420;2023-02-28T08:13:47;99541.50;;;2.98;100.00
53270;BME280;39159;45.634;9.420;2023-02-28T08:16:14;99540.84;;;3.08;100.00
53270;BME280;39159;45.634;9.420;2023-02-28T08:18:42;99539.53;;;3.10;100.00
53270;BME280;39159;45.634;9.420;2023-02-28T08:21:09;99544.28;;;3.03;100.00
53270;BME280;39159;45.634;9.420;2023-02-28T08:23:35;99552.59;;;3.02;100.00
53270;BME280;39159;45.634;9.420;2023-02-28T08:26:01;99549.06;;;2.84;100.00
53270;BME280;39159;45.634;9.420;2023-02-28T08:28:27;99548.25;;;2.84;100.00
53270;BME280;39159;45.634;9.420;2023-02-28T08:30:52;99548.31;;;2.89;100.00
53270;BME280;39159;45.634;9.420;2023-02-28T08:33:18;99546.56;;;2.95;100.00
53270;BME280;39159;45.634;9.420;2023-02-28T08:35:44;99550.25;;;3.05;100.00
53270;BME280;39159;45.634;9.420;2023-02-28T08:38:09;99551.41;;;3.09;100.00
53270;BME280;39159;45.634;9.420;2023-02-28T08:40:35;99561.88;;;3.23;100.00
53270;BME280;39159;45.634;9.420;2023-02-28T08:43:00;99554.50;;;3.35;100.00
53270;BME280;39159;45.634;9.420;2023-02-28T08:45:26;99556.22;;;3.41;100.00
53270;BME280;39159;45.634;9.420;2023-02-28T08:47:51;99551.81;;;3.52;100.00
53270;BME280;39159;45.634;9.420;2023-02-28T08:50:17;99553.19;;;3.71;100.00
53270;BME280;39159;45.634;9.420;2023-02-28T08:52:43;99561.28;;;3.71;100.00
53270;BME280;39159;45.634;9.420;2023-02-28T08:55:09;99556.63;;;3.67;100.00
53270;BME280;39159;45.634;9.420;2023-02-28T08:57:35;99547.03;;;3.76;100.00
53270;BME280;39159;45.634;9.420;2023-02-28T09:00:00;99548.88;;;3.92;100.00
53270;BME280;39159;45.634;9.420;2023-02-28T09:02:30;99550.31;;;4.22;100.00
53270;BME280;39159;45.634;9.420;2023-02-28T09:04:55;99548.56;;;4.33;100.00
53270;BME280;39159;45.634;9.420;2023-02-28T09:07:20;99553.16;;;4.32;100.00
53270;BME280;39159;45.634;9.420;2023-02-28T09:09:46;99548.19;;;4.24;100.00
53270;BME280;39159;45.634;9.420;2023-02-28T09:12:21;99551.03;;;4.34;100.00
53270;BME280;39159;45.634;9.420;2023-02-28T09:14:47;99552.72;;;4.41;100.00
53270;BME280;39159;45.634;9.420;2023-02-28T09:17:12;99558.88;;;4.58;100.00
53270;BME280;39159;45.634;9.420;2023-02-28T09:19:38;99560.66;;;4.74;100.00
53270;BME280;39159;45.634;9.420;2023-02-28T09:22:03;99558.97;;;4.95;100.00
53270;BME280;39159;45.634;9.420;2023-02-28T09:24:29;99557.19;;;5.38;100.00
53270;BME280;39159;45.634;9.420;2023-02-28T09:26:56;99556.31;;;5.70;98.29
53270;BME280;39159;45.634;9.420;2023-02-28T09:29:22;99563.09;;;5.73;98.09
53270;BME280;39159;45.634;9.420;2023-02-28T09:31:47;99550.31;;;6.00;98.63
53270;BME280;39159;45.634;9.420;2023-02-28T09:34:13;99556.88;;;6.10;96.06
53270;BME280;39159;45.634;9.420;2023-02-28T09:36:38;99563.41;;;6.14;94.08
53270;BME280;39159;45.634;9.420;2023-02-28T09:39:04;99567.06;;;6.45;90.98
53270;BME280;39159;45.634;9.420;2023-02-28T09:41:42;99561.31;;;6.41;90.75
53270;BME280;39159;45.634;9.420;2023-02-28T09:44:41;99561.88;;;6.49;92.27
53270;BME280;39159;45.634;9.420;2023-02-28T09:47:13;99566.31;;;6.75;93.22
53270;BME280;39159;45.634;9.420;2023-02-28T09:49:43;99572.59;;;6.86;90.09
53270;BME280;39159;45.634;9.420;2023-02-28T09:52:18;99563.03;;;6.63;90.04
53270;BME280;39159;45.634;9.420;2023-02-28T09:54:44;99568.22;;;6.75;90.46
53270;BME280;39159;45.634;9.420;2023-02-28T10:04:59;99569.31;;;6.79;87.01
53270;BME280;39159;45.634;9.420;2023-02-28T10:13:00;99558.41;;;6.58;87.46
53270;BME280;39159;45.634;9.420;2023-02-28T10:15:30;99564.66;;;6.69;86.54
53270;BME280;39159;45.634;9.420;2023-02-28T10:18:03;99561.94;;;6.69;86.27
53270;BME280;39159;45.634;9.420;2023-02-28T10:20:34;99556.47;;;6.43;84.09
53270;BME280;39159;45.634;9.420;2023-02-28T10:23:12;99559.16;;;6.43;84.49
53270;BME280;39159;45.634;9.420;2023-02-28T10:25:38;99554.56;;;6.44;86.78
53270;BME280;39159;45.634;9.420;2023-02-28T10:30:32;99564.28;;;6.30;84.39
53270;BME280;39159;45.634;9.420;2023-02-28T10:32:58;99559.72;;;6.46;86.34
53270;BME280;39159;45.634;9.420;2023-02-28T10:35:26;99554.25;;;6.35;86.14
53270;BME280;39159;45.634;9.420;2023-02-28T10:37:59;99561.50;;;6.14;86.54
53270;BME280;39159;45.634;9.420;2023-02-28T10:40:35;99561.00;;;6.28;85.58
53270;BME280;39159;45.634;9.420;2023-02-28T10:43:05;99555.41;;;6.60;85.51
53270;BME280;39159;45.634;9.420;2023-02-28T10:45:33;99563.16;;;7.30;83.51
53270;BME280;39159;45.634;9.420;2023-02-28T10:56:17;99555.50;;;9.08;68.42
53270;BME280;39159;45.634;9.420;2023-02-28T11:01:37;99548.88;;;8.85;70.77
53270;BME280;39159;45.634;9.420;2023-02-28T11:04:20;99547.81;;;8.81;69.89
53270;BME280;39159;45.634;9.420;2023-02-28T11:07:06;99541.94;;;8.58;70.56
53270;BME280;39159;45.634;9.420;2023-02-28T11:09:38;99541.22;;;8.32;72.17
53270;BME280;39159;45.634;9.420;2023-02-28T11:12:18;99539.88;;;8.24;71.17
53270;BME280;39159;45.634;9.420;2023-02-28T11:15:00;99548.69;;;7.91;71.42
53270;BME280;39159;45.634;9.420;2023-02-28T11:17:29;99544.19;;;8.30;67.96
53270;BME280;39159;45.634;9.420;2023-02-28T11:19:58;99533.22;;;8.61;68.72
53270;BME280;39159;45.634;9.420;2023-02-28T11:22:30;99519.66;;;8.96;67.40
53270;BME280;39159;45.634;9.420;2023-02-28T11:25:03;99513.53;;;9.14;66.84
53270;BME280;39159;45.634;9.420;2023-02-28T11:30:00;99508.50;;;9.61;64.15
53270;BME280;39159;45.634;9.420;2023-02-28T11:32:27;99513.50;;;9.19;65.60
53270;BME280;39159;45.634;9.420;2023-02-28T11:37:36;99500.81;;;9.92;64.08
53270;BME280;39159;45.634;9.420;2023-02-28T11:40:05;99499.91;;;9.72;62.97
53270;BME280;39159;45.634;9.420;2023-02-28T11:45:57;99488.03;;;9.63;63.28
53270;BME280;39159;45.634;9.420;2023-02-28T11:48:38;99481.09;;;9.18;65.38
53270;BME280;39159;45.634;9.420;2023-02-28T11:51:21;99472.25;;;9.84;64.72
53270;BME280;39159;45.634;9.420;2023-02-28T11:54:21;99479.25;;;9.66;64.18
53270;BME280;39159;45.634;9.420;2023-02-28T11:56:55;99477.59;;;9.70;61.91
53270;BME280;39159;45.634;9.420;2023-02-28T12:10:44;99452.19;;;8.53;66.78
53270;BME280;39159;45.634;9.420;2023-02-28T12:13:21;99446.47;;;8.55;64.59
53270;BME280;39159;45.634;9.420;2023-02-28T12:15:54;99445.16;;;7.82;66.76
53270;BME280;39159;45.634;9.420;2023-02-28T12:18:31;99448.50;;;7.53;69.23
53270;BME280;39159;45.634;9.420;2023-02-28T12:26:39;99434.13;;;9.02;67.02
53270;BME280;39159;45.634;9.420;2023-02-28T12:31:49;99422.16;;;9.27;61.46
53270;BME280;39159;45.634;9.420;2023-02-28T12:34:46;99419.31;;;9.66;62.13
53270;BME280;39159;45.634;9.420;2023-02-28T12:40:09;99406.34;;;10.01;58.74
53270;BME280;39159;45.634;9.420;2023-02-28T12:42:39;99406.44;;;9.96;58.85
53270;BME280;39159;45.634;9.420;2023-02-28T12:45:27;99407.06;;;10.07;59.16
53270;BME280;39159;45.634;9.420;2023-02-28T12:48:00;99394.31;;;10.45;57.51
53270;BME280;39159;45.634;9.420;2023-02-28T12:50:27;99401.59;;;10.83;56.66
53270;BME280;39159;45.634;9.420;2023-02-28T12:54:02;99394.56;;;10.95;55.14
53270;BME280;39159;45.634;9.420;2023-02-28T12:56:13;99398.09;;;10.06;58.92
53270;BME280;39159;45.634;9.420;2023-02-28T12:59:10;99393.75;;;10.05;59.66
53270;BME280;39159;45.634;9.420;2023-02-28T13:09:57;99386.13;;;10.78;55.48
53270;BME280;39159;45.634;9.420;2023-02-28T13:12:25;99381.13;;;10.85;54.06
53270;BME280;39159;45.634;9.420;2023-02-28T13:15:43;99378.84;;;10.73;54.78
53270;BME280;39159;45.634;9.420;2023-02-28T13:17:52;99376.66;;;10.89;55.33
53270;BME280;39159;45.634;9.420;2023-02-28T13:20:39;99369.28;;;10.19;56.26
53270;BME280;39159;45.634;9.420;2023-02-28T13:26:07;99368.03;;;9.20;62.21
53270;BME280;39159;45.634;9.420;2023-02-28T13:31:20;99368.22;;;9.29;62.03
53270;BME280;39159;45.634;9.420;2023-02-28T13:38:43;99365.06;;;8.92;63.75
53270;BME280;39159;45.634;9.420;2023-02-28T14:03:44;99366.06;;;7.88;66.77
53270;BME280;39159;45.634;9.420;2023-02-28T14:06:30;99347.84;;;7.94;67.23
53270;BME280;39159;45.634;9.420;2023-02-28T14:09:03;99340.22;;;7.96;67.71
53270;BME280;39159;45.634;9.420;2023-02-28T14:11:41;99346.56;;;7.76;67.74
53270;BME280;39159;45.634;9.420;2023-02-28T14:14:08;99344.16;;;7.70;66.94
53270;BME280;39159;45.634;9.420;2023-02-28T14:16:45;99349.53;;;7.80;67.61
53270;BME280;39159;45.634;9.420;2023-02-28T14:22:18;99331.44;;;8.04;66.47
53270;BME280;39159;45.634;9.420;2023-02-28T14:27:57;99334.69;;;8.12;66.44
53270;BME280;39159;45.634;9.420;2023-02-28T14:33:35;99323.19;;;8.25;64.20
53270;BME280;39159;45.634;9.420;2023-02-28T14:36:14;99316.69;;;8.21;65.56
53270;BME280;39159;45.634;9.420;2023-02-28T14:38:51;99324.19;;;8.34;64.61
53270;BME280;39159;45.634;9.420;2023-02-28T14:41:22;99312.56;;;8.23;66.31
53270;BME280;39159;45.634;9.420;2023-02-28T14:43:50;99312.97;;;8.46;65.99
53270;BME280;39159;45.634;9.420;2023-02-28T14:46:17;99308.19;;;8.62;63.29
53270;BME280;39159;45.634;9.420;2023-02-28T14:48:46;99306.44;;;8.76;62.61
53270;BME280;39159;45.634;9.420;2023-02-28T14:51:18;99312.09;;;8.80;62.50
53270;BME280;39159;45.634;9.420;2023-02-28T14:53:44;99317.53;;;8.85;62.03
53270;BME280;39159;45.634;9.420;2023-02-28T14:56:22;99304.66;;;8.90;61.32
53270;BME280;39159;45.634;9.420;2023-02-28T14:58:55;99302.19;;;8.65;62.57
53270;BME280;39159;45.634;9.420;2023-02-28T15:01:23;99306.34;;;8.57;63.05
53270;BME280;39159;45.634;9.420;2023-02-28T15:03:58;99305.09;;;8.39;61.98
53270;BME280;39159;45.634;9.420;2023-02-28T15:06:24;99295.09;;;8.35;61.69
53270;BME280;39159;45.634;9.420;2023-02-28T15:09:16;99299.31;;;8.17;62.66
53270;BME280;39159;45.634;9.420;2023-02-28T15:11:45;99290.72;;;7.99;63.39
53270;BME280;39159;45.634;9.420;2023-02-28T15:14:19;99306.91;;;7.80;63.54
53270;BME280;39159;45.634;9.420;2023-02-28T15:16:52;99294.97;;;7.71;64.53
53270;BME280;39159;45.634;9.420;2023-02-28T15:19:23;99298.53;;;7.66;65.15
53270;BME280;39159;45.634;9.420;2023-02-28T15:21:54;99297.19;;;7.64;65.04
53270;BME280;39159;45.634;9.420;2023-02-28T15:24:30;99299.38;;;7.62;65.38
53270;BME280;39159;45.634;9.420;2023-02-28T15:26:58;99295.81;;;7.66;65.83
53270;BME280;39159;45.634;9.420;2023-02-28T15:29:27;99284.94;;;7.66;65.48
53270;BME280;39159;45.634;9.420;2023-02-28T15:32:02;99284.94;;;7.72;66.38
53270;BME280;39159;45.634;9.420;2023-02-28T15:34:35;99286.75;;;7.81;67.22